createdAt,value
2023-01-23T00:01:04.277Z,34.00
2023-01-23T00:03:32.408Z,24.80
2023-01-23T00:06:00.828Z,33.60
2023-01-23T00:08:30.471Z,27.20
2023-01-23T00:10:58.517Z,33.20
2023-01-23T00:13:26.912Z,19.40
2023-01-23T00:15:55.458Z,31.80
2023-01-23T00:18:23.652Z,26.20
2023-01-23T00:20:52.050Z,27.20
2023-01-23T00:23:20.134Z,30.00
2023-01-23T00:25:49.620Z,33.00
2023-01-23T00:28:17.667Z,32.80
2023-01-23T00:30:46.223Z,26.60
2023-01-23T00:33:14.458Z,29.80
2023-01-23T00:35:42.564Z,27.40
2023-01-23T00:38:10.853Z,31.40
2023-01-23T00:40:39.550Z,34.40
2023-01-23T00:43:09.451Z,33.60
2023-01-23T00:45:38.193Z,32.20
2023-01-23T00:48:06.719Z,28.80
2023-01-23T00:50:34.880Z,31.00
2023-01-23T00:53:04.610Z,28.80
2023-01-23T00:55:32.713Z,31.60
2023-01-23T00:58:01.619Z,30.20
2023-01-23T01:00:31.356Z,28.00
2023-01-23T01:02:59.598Z,17.20
2023-01-23T01:05:28.693Z,20.60
2023-01-23T01:07:56.815Z,26.80
2023-01-23T01:10:29.552Z,30.00
2023-01-23T01:12:57.897Z,27.60
2023-01-23T01:15:26.451Z,24.00
2023-01-23T01:17:56.298Z,30.40
2023-01-23T01:20:26.192Z,27.60
2023-01-23T01:22:54.741Z,26.80
2023-01-23T01:25:23.497Z,27.20
2023-01-23T01:27:51.829Z,28.00
2023-01-23T01:30:20.512Z,28.40
2023-01-23T01:32:49.711Z,25.20
2023-01-23T01:35:19.281Z,28.80
2023-01-23T01:37:47.631Z,33.40
2023-01-23T01:40:17.737Z,33.00
2023-01-23T01:42:47.040Z,27.80
2023-01-23T01:45:34.128Z,30.60
2023-01-23T01:48:02.600Z,29.20
2023-01-23T01:50:32.296Z,27.80
2023-01-23T01:53:00.406Z,36.40
2023-01-23T01:55:28.565Z,31.00
2023-01-23T01:57:56.660Z,23.60
2023-01-23T02:00:24.855Z,32.60
2023-01-23T02:02:54.844Z,30.20
2023-01-23T02:05:25.591Z,32.80
2023-01-23T02:07:57.869Z,31.40
2023-01-23T02:10:26.159Z,33.20
2023-01-23T02:12:54.421Z,30.40
2023-01-23T02:15:24.045Z,31.60
2023-01-23T02:17:53.016Z,32.40
2023-01-23T02:20:41.434Z,31.40
2023-01-23T02:23:15.132Z,27.00
2023-01-23T02:25:51.516Z,29.00
2023-01-23T02:28:19.827Z,34.40
2023-01-23T02:30:48.104Z,30.60
2023-01-23T02:33:30.990Z,33.40
2023-01-23T02:35:59.169Z,32.20
2023-01-23T02:38:28.729Z,30.00
2023-01-23T02:41:00.324Z,33.00
2023-01-23T02:43:35.333Z,28.80
2023-01-23T02:46:07.271Z,30.20
2023-01-23T02:48:35.560Z,33.20
2023-01-23T02:51:04.472Z,25.20
2023-01-23T02:53:32.657Z,35.20
2023-01-23T02:56:02.345Z,22.40
2023-01-23T02:58:47.698Z,33.60
2023-01-23T03:01:15.997Z,23.20
2023-01-23T03:03:44.225Z,26.00
2023-01-23T03:06:12.765Z,27.20
2023-01-23T03:08:47.796Z,30.60
2023-01-23T03:11:18.995Z,29.40
2023-01-23T03:13:47.373Z,32.00
2023-01-23T03:16:16.117Z,26.60
2023-01-23T03:18:53.919Z,26.20
2023-01-23T03:21:23.098Z,30.20
2023-01-23T03:23:51.414Z,36.40
2023-01-23T03:26:21.196Z,28.40
2023-01-23T03:29:09.797Z,28.80
2023-01-23T03:31:38.054Z,26.60
2023-01-23T03:34:07.649Z,30.80
2023-01-23T03:36:37.535Z,30.40
2023-01-23T03:39:23.725Z,30.80
2023-01-23T03:41:53.550Z,30.80
2023-01-23T03:44:23.396Z,38.40
2023-01-23T03:46:53.402Z,26.60
2023-01-23T03:49:21.810Z,20.00
2023-01-23T03:51:57.203Z,32.40
2023-01-23T03:54:25.724Z,33.80
2023-01-23T03:56:56.578Z,33.80
2023-01-23T03:59:44.955Z,24.80
2023-01-23T04:02:13.231Z,32.20
2023-01-23T04:04:41.692Z,28.00
2023-01-23T04:07:10.164Z,35.00
2023-01-23T04:09:40.538Z,25.40
2023-01-23T04:12:10.550Z,35.00
2023-01-23T04:14:42.818Z,37.00
2023-01-23T04:17:12.518Z,30.60
2023-01-23T04:19:40.798Z,31.20
2023-01-23T04:22:10.142Z,30.00
2023-01-23T04:24:46.838Z,29.80
2023-01-23T04:27:16.680Z,33.00
2023-01-23T04:29:48.017Z,26.20
2023-01-23T04:32:16.509Z,29.20
2023-01-23T04:34:47.599Z,35.20
2023-01-23T04:37:16.483Z,25.60
2023-01-23T04:39:44.646Z,37.40
2023-01-23T04:42:13.088Z,27.20
2023-01-23T04:45:09.770Z,37.00
2023-01-23T04:47:44.137Z,27.40
2023-01-23T04:50:14.887Z,37.40
2023-01-23T04:52:46.825Z,30.40
2023-01-23T04:55:15.294Z,34.60
2023-01-23T04:57:45.313Z,25.40
2023-01-23T05:00:25.216Z,35.60
2023-01-23T05:02:53.925Z,31.00
2023-01-23T05:05:22.429Z,27.60
2023-01-23T05:07:53.360Z,33.00
2023-01-23T05:10:21.835Z,34.00
2023-01-23T05:12:51.002Z,36.00
2023-01-23T05:15:20.830Z,34.40
2023-01-23T05:17:50.524Z,31.00
2023-01-23T05:20:19.139Z,32.00
2023-01-23T05:22:53.438Z,30.40
2023-01-23T05:25:29.015Z,39.20
2023-01-23T05:27:59.995Z,40.80
2023-01-23T05:30:28.694Z,34.40
2023-01-23T05:33:13.786Z,27.60
2023-01-23T05:35:42.305Z,22.20
2023-01-23T05:38:10.963Z,24.25
2023-01-23T05:40:39.235Z,29.20
2023-01-23T05:43:16.510Z,29.80
2023-01-23T05:46:23.109Z,23.80
2023-01-23T05:48:54.851Z,24.80
2023-01-23T05:51:23.616Z,23.40
2023-01-23T05:53:54.216Z,21.00
2023-01-23T05:56:23.109Z,19.40
2023-01-23T05:59:14.486Z,25.80
2023-01-23T06:01:58.943Z,19.40
2023-01-23T06:04:53.238Z,23.00
2023-01-23T06:07:36.447Z,23.20
2023-01-23T06:10:10.014Z,21.20
2023-01-23T06:12:38.526Z,20.25
2023-01-23T06:15:08.091Z,22.40
2023-01-23T06:17:37.019Z,16.50
2023-01-23T06:20:08.183Z,20.80
2023-01-23T06:22:37.004Z,18.75
2023-01-23T06:25:10.268Z,21.00
2023-01-23T06:27:38.625Z,35.60
2023-01-23T06:30:10.415Z,25.20
2023-01-23T06:32:43.864Z,21.80
2023-01-23T06:35:14.901Z,24.00
2023-01-23T06:37:45.050Z,24.60
2023-01-23T06:40:18.279Z,17.80
2023-01-23T06:43:04.694Z,22.75
2023-01-23T06:45:32.998Z,18.50
2023-01-23T06:48:01.367Z,11.50
2023-01-23T06:50:31.349Z,19.60
2023-01-23T06:52:59.679Z,22.20
2023-01-23T06:55:29.179Z,10.80
2023-01-23T06:57:58.612Z,23.60
2023-01-23T07:00:28.304Z,23.60
2023-01-23T07:02:59.367Z,19.00
2023-01-23T07:05:27.807Z,23.20
2023-01-23T07:07:58.838Z,18.60
2023-01-23T07:10:27.638Z,21.00
2023-01-23T07:12:55.816Z,24.80
2023-01-23T07:15:24.074Z,22.40
2023-01-23T07:17:52.269Z,27.40
2023-01-23T07:20:21.237Z,18.60
2023-01-23T07:22:57.854Z,24.00
2023-01-23T07:25:27.045Z,24.60
2023-01-23T07:27:55.207Z,27.00
2023-01-23T07:30:23.491Z,27.80
2023-01-23T07:32:51.747Z,26.80
2023-01-23T07:35:46.330Z,32.80
2023-01-23T07:39:02.687Z,34.20
2023-01-23T07:41:32.396Z,24.60
2023-01-23T07:44:04.167Z,28.20
2023-01-23T07:46:32.500Z,29.40
2023-01-23T07:49:00.638Z,32.80
2023-01-23T07:51:29.155Z,31.40
2023-01-23T07:53:57.270Z,18.40
2023-01-23T07:56:25.410Z,30.80
2023-01-23T07:58:57.448Z,28.00
2023-01-23T08:01:25.677Z,24.80
2023-01-23T08:03:54.437Z,26.40
2023-01-23T08:06:22.680Z,27.00
2023-01-23T08:08:51.093Z,17.40
2023-01-23T08:11:19.686Z,22.80
2023-01-23T08:13:50.143Z,21.80
2023-01-23T08:16:21.325Z,18.20
2023-01-23T08:18:49.634Z,23.60
2023-01-23T08:21:18.014Z,17.20
2023-01-23T08:23:46.680Z,26.20
2023-01-23T08:26:15.947Z,17.80
2023-01-23T08:28:44.159Z,16.40
2023-01-23T08:31:13.508Z,18.00
2023-01-23T08:33:43.450Z,19.40
2023-01-23T08:36:13.373Z,21.40
2023-01-23T08:38:41.619Z,18.00
2023-01-23T08:41:12.014Z,19.80
2023-01-23T08:43:41.599Z,20.20
2023-01-23T08:46:10.445Z,20.20
2023-01-23T08:48:38.827Z,9.80
2023-01-23T08:51:09.619Z,16.40
2023-01-23T08:53:38.097Z,19.60
2023-01-23T08:56:07.091Z,17.20
2023-01-23T08:58:35.892Z,14.60
2023-01-23T09:01:04.043Z,16.00
2023-01-23T09:03:32.299Z,16.00
2023-01-23T09:06:02.365Z,17.40
2023-01-23T09:08:31.947Z,12.20
2023-01-23T09:11:01.383Z,18.80
2023-01-23T09:13:29.787Z,17.60
2023-01-23T09:15:58.082Z,21.40
2023-01-23T09:18:26.300Z,15.20
2023-01-23T09:20:55.007Z,14.60
2023-01-23T09:23:23.523Z,17.60
2023-01-23T09:25:53.109Z,15.00
2023-01-23T09:28:21.252Z,12.60
2023-01-23T09:30:49.486Z,20.60
2023-01-23T09:33:18.380Z,16.80
2023-01-23T09:35:46.577Z,15.40
2023-01-23T09:38:14.820Z,22.40
2023-01-23T09:40:47.521Z,21.40
2023-01-23T09:43:18.214Z,19.40
2023-01-23T09:45:52.346Z,21.60
2023-01-23T09:48:22.972Z,17.60
2023-01-23T09:50:56.504Z,15.80
2023-01-23T09:53:28.010Z,30.80
2023-01-23T09:56:00.724Z,27.20
2023-01-23T09:58:34.626Z,32.60
2023-01-23T10:01:02.782Z,19.40
2023-01-23T10:03:33.112Z,30.40
2023-01-23T10:06:17.873Z,27.20
2023-01-23T10:08:52.505Z,30.40
2023-01-23T10:11:25.490Z,31.40
2023-01-23T10:14:04.668Z,15.00
2023-01-23T10:16:50.333Z,22.40
2023-01-23T10:19:24.700Z,12.00
2023-01-23T10:21:57.554Z,24.60
2023-01-23T10:24:40.138Z,24.00
2023-01-23T10:27:20.204Z,27.80
2023-01-23T10:29:51.655Z,24.40
2023-01-23T10:32:24.840Z,28.80
2023-01-23T10:34:58.545Z,19.00
2023-01-23T10:37:33.871Z,21.40
2023-01-23T10:40:04.493Z,19.40
2023-01-23T10:42:32.872Z,14.20
2023-01-23T10:45:02.377Z,22.40
2023-01-23T10:47:36.959Z,26.80
2023-01-23T10:50:06.506Z,30.60
2023-01-23T10:52:36.783Z,27.80
2023-01-23T10:55:06.328Z,24.00
2023-01-23T10:57:39.615Z,23.20
2023-01-23T11:00:21.410Z,26.60
2023-01-23T11:36:28.325Z,27.80
2023-01-23T11:39:00.027Z,25.80
2023-01-23T11:41:30.770Z,32.20
2023-01-23T11:43:58.850Z,24.20
2023-01-23T11:46:36.515Z,30.80
2023-01-23T11:49:11.325Z,18.00
2023-01-23T11:51:48.058Z,24.60
2023-01-23T11:54:22.373Z,30.20
2023-01-23T11:56:57.576Z,28.00
2023-01-23T11:59:39.094Z,29.60
2023-01-23T12:02:18.673Z,19.00
2023-01-23T12:05:01.544Z,29.60
2023-01-23T12:07:35.347Z,27.40
2023-01-23T12:10:11.199Z,28.00
2023-01-23T12:12:47.671Z,29.00
2023-01-23T12:15:19.825Z,30.40
2023-01-23T12:17:54.761Z,26.20
2023-01-23T12:20:28.062Z,27.60
2023-01-23T12:23:14.368Z,33.00
2023-01-23T12:25:43.994Z,24.80
2023-01-23T12:28:21.446Z,28.60
2023-01-23T12:31:06.846Z,33.40
2023-01-23T12:33:50.485Z,24.60
2023-01-23T12:36:28.627Z,34.40
2023-01-23T12:39:04.517Z,31.00
2023-01-23T12:41:38.165Z,30.00
2023-01-23T12:44:11.309Z,33.00
2023-01-23T12:46:43.348Z,27.40
2023-01-23T12:49:20.584Z,34.00
2023-01-23T12:51:52.198Z,32.20
2023-01-23T12:54:26.273Z,27.20
2023-01-23T12:56:55.379Z,16.20
2023-01-23T12:59:27.271Z,30.20
2023-01-23T13:02:00.631Z,28.60
2023-01-23T13:04:40.853Z,31.40
2023-01-23T13:07:16.662Z,31.00
2023-01-23T13:09:52.871Z,33.00
2023-01-23T13:12:22.991Z,27.40
2023-01-23T13:15:17.270Z,23.00
2023-01-23T13:17:43.355Z,30.00
2023-01-23T13:20:40.263Z,29.60
2023-01-23T13:23:25.827Z,28.40
2023-01-23T13:26:08.842Z,25.40
2023-01-23T13:28:46.474Z,30.40
2023-01-23T13:31:28.888Z,26.20
2023-01-23T13:34:10.204Z,28.40
2023-01-23T13:36:43.566Z,24.40
2023-01-23T13:39:22.837Z,31.80
2023-01-23T13:41:52.631Z,35.60
2023-01-23T13:44:35.857Z,26.00
2023-01-23T14:21:42.930Z,26.40
2023-01-23T14:24:21.888Z,22.60
2023-01-23T14:26:50.704Z,25.40
2023-01-23T14:29:23.172Z,30.00
2023-01-23T14:31:52.246Z,29.80
2023-01-23T14:34:22.555Z,28.40
2023-01-23T14:36:52.743Z,27.60
2023-01-23T14:39:22.532Z,13.20
2023-01-23T14:41:51.790Z,25.80
2023-01-23T14:44:23.081Z,28.00
2023-01-23T14:46:53.290Z,26.20
2023-01-23T14:49:25.685Z,28.80
2023-01-23T14:51:58.111Z,25.00
2023-01-23T14:54:32.558Z,24.80
2023-01-23T14:57:04.618Z,30.00
2023-01-23T14:59:35.234Z,30.80
2023-01-23T15:02:13.230Z,30.00
2023-01-23T15:05:02.920Z,23.60
2023-01-23T15:07:33.039Z,36.40
2023-01-23T15:10:01.345Z,27.40
2023-01-23T15:12:38.685Z,18.20
2023-01-23T15:15:22.226Z,25.80
2023-01-23T15:17:52.664Z,23.60
2023-01-23T15:20:37.131Z,26.20
2023-01-23T15:23:31.784Z,32.20
2023-01-23T15:26:26.616Z,31.20
2023-01-23T15:28:56.052Z,25.60
2023-01-23T15:31:35.480Z,33.80
2023-01-23T15:34:19.943Z,35.20
2023-01-23T15:36:50.054Z,31.80
2023-01-23T15:39:22.505Z,29.60
2023-01-23T15:41:55.697Z,24.20
2023-01-23T15:44:26.483Z,23.80
2023-01-23T15:46:56.534Z,25.80
2023-01-23T15:49:26.598Z,22.40
2023-01-23T15:51:56.766Z,27.00
2023-01-23T15:54:26.613Z,30.80
2023-01-23T15:57:07.161Z,30.00
2023-01-23T15:59:38.881Z,26.60
2023-01-23T16:02:18.145Z,26.00
2023-01-23T16:04:53.792Z,27.40
2023-01-23T16:07:24.695Z,26.00
2023-01-23T16:09:55.267Z,33.00
2023-01-23T16:12:31.324Z,31.00
2023-01-23T16:14:59.835Z,32.80
2023-01-23T16:17:28.082Z,25.80
2023-01-23T16:19:56.226Z,30.40
2023-01-23T16:22:27.443Z,28.00
2023-01-23T16:24:56.913Z,19.20
2023-01-23T16:27:27.859Z,33.40
2023-01-23T16:29:56.705Z,28.80
2023-01-23T16:32:25.377Z,28.40
2023-01-23T16:34:53.931Z,30.40
2023-01-23T16:37:24.114Z,31.60
2023-01-23T16:39:52.473Z,24.40
2023-01-23T16:42:22.902Z,30.40
2023-01-23T16:44:54.599Z,32.20
2023-01-23T16:47:23.425Z,29.80
2023-01-23T16:49:54.045Z,26.80
2023-01-23T16:52:25.984Z,33.40
2023-01-23T16:54:54.960Z,29.60
2023-01-23T16:57:23.436Z,24.60
2023-01-23T16:59:56.531Z,33.20
2023-01-23T17:02:28.953Z,30.80
2023-01-23T17:04:57.507Z,30.80
2023-01-23T17:07:26.090Z,30.40
2023-01-23T17:09:55.792Z,26.40
2023-01-23T17:12:27.758Z,33.80
2023-01-23T17:14:59.969Z,35.20
2023-01-23T17:17:30.631Z,30.80
2023-01-23T17:19:59.054Z,27.20
2023-01-23T17:22:28.465Z,36.00
2023-01-23T17:24:56.994Z,34.00
2023-01-23T17:27:25.359Z,38.00
2023-01-23T17:29:53.783Z,20.80
2023-01-23T17:32:29.709Z,31.00
2023-01-23T17:34:58.541Z,33.20
2023-01-23T17:37:26.826Z,33.00
2023-01-23T17:39:55.550Z,37.80
2023-01-23T17:42:24.017Z,30.80
2023-01-23T17:44:52.423Z,32.20
2023-01-23T17:47:21.139Z,36.40
2023-01-23T17:49:54.640Z,37.60
2023-01-23T17:52:25.503Z,27.20
2023-01-23T17:54:55.743Z,27.00
2023-01-23T17:57:24.056Z,31.40
2023-01-23T17:59:55.494Z,36.00
2023-01-23T18:02:28.896Z,32.20
2023-01-23T18:04:58.794Z,39.40
2023-01-23T18:07:27.789Z,34.80
2023-01-23T18:09:57.009Z,31.20
2023-01-23T18:12:30.684Z,34.60
2023-01-23T18:15:04.890Z,30.00
2023-01-23T18:17:37.285Z,32.40
2023-01-23T18:20:16.529Z,30.40
2023-01-23T18:22:44.907Z,34.20
2023-01-23T18:25:14.990Z,26.80
2023-01-23T18:27:44.269Z,36.20
2023-01-23T18:30:30.162Z,30.60
2023-01-23T18:33:27.330Z,31.80
2023-01-23T18:36:06.315Z,37.00
2023-01-23T18:38:40.259Z,33.80
2023-01-23T18:41:13.043Z,34.00
2023-01-23T18:43:45.236Z,37.40
2023-01-23T18:46:15.341Z,25.00
2023-01-23T18:48:44.655Z,30.60
2023-01-23T18:51:21.825Z,39.80
2023-01-23T18:53:56.790Z,36.80
2023-01-23T18:56:29.862Z,34.80
2023-01-23T18:59:11.574Z,35.80
2023-01-23T19:01:44.949Z,32.40
2023-01-23T19:04:15.915Z,37.00
2023-01-23T19:06:46.979Z,34.00
2023-01-23T19:09:18.969Z,34.00
2023-01-23T19:12:02.419Z,37.20
2023-01-23T19:14:55.635Z,32.80
2023-01-23T19:17:32.880Z,37.80
2023-01-23T19:20:05.233Z,34.80
2023-01-23T19:22:43.136Z,35.40
2023-01-23T19:25:17.570Z,37.00
2023-01-23T19:27:52.556Z,29.60
2023-01-23T19:30:22.617Z,32.20
2023-01-23T19:32:51.846Z,37.80
2023-01-23T19:35:20.520Z,36.60
2023-01-23T19:37:50.857Z,29.60
2023-01-23T19:40:19.350Z,37.00
2023-01-23T19:42:58.736Z,38.20
2023-01-23T19:45:36.111Z,39.00
2023-01-23T19:48:04.747Z,39.80
2023-01-23T19:50:33.079Z,38.20
2023-01-23T19:53:02.882Z,37.80
2023-01-23T19:55:32.493Z,43.80
2023-01-23T19:58:00.943Z,35.40
2023-01-23T20:00:32.501Z,19.80
2023-01-23T20:03:01.064Z,36.40
2023-01-23T20:05:29.736Z,41.60
2023-01-23T20:07:59.104Z,27.40
2023-01-23T20:10:29.083Z,44.20
2023-01-23T20:12:57.524Z,42.20
2023-01-23T20:15:27.070Z,32.20
2023-01-23T20:17:55.285Z,41.80
2023-01-23T20:20:24.493Z,36.60
2023-01-23T20:22:53.057Z,27.80
2023-01-23T20:25:21.714Z,43.60
2023-01-23T20:27:51.506Z,40.20
2023-01-23T20:30:21.071Z,34.20
2023-01-23T20:32:49.826Z,35.60
2023-01-23T20:35:18.139Z,37.80
2023-01-23T20:37:46.368Z,38.60
2023-01-23T20:40:14.601Z,29.40
2023-01-23T20:42:42.878Z,44.60
2023-01-23T20:45:13.543Z,37.40
2023-01-23T20:47:41.613Z,12.00
2023-01-23T20:50:10.650Z,35.80
2023-01-23T20:52:56.441Z,43.40
2023-01-23T20:55:25.105Z,39.40
2023-01-23T20:58:10.694Z,38.60
2023-01-23T21:00:40.852Z,37.00
2023-01-23T21:03:08.951Z,39.20
2023-01-23T21:05:37.958Z,38.20
2023-01-23T21:08:06.249Z,39.20
2023-01-23T21:10:34.543Z,43.80
2023-01-23T21:13:02.685Z,35.80
2023-01-23T21:15:33.145Z,32.60
2023-01-23T21:18:02.979Z,35.80
2023-01-23T21:20:31.229Z,28.40
2023-01-23T21:22:59.440Z,36.20
2023-01-23T21:25:27.635Z,38.80
2023-01-23T21:27:55.817Z,27.80
2023-01-23T21:30:23.988Z,40.80
2023-01-23T21:32:52.180Z,43.40
2023-01-23T21:35:22.114Z,41.60
2023-01-23T21:37:50.459Z,35.20
2023-01-23T21:40:18.857Z,44.20
2023-01-23T21:42:47.208Z,42.40
2023-01-23T21:45:15.665Z,40.00
2023-01-23T21:47:43.916Z,32.20
2023-01-23T21:50:12.647Z,42.40
2023-01-23T21:52:42.175Z,34.00
2023-01-23T21:55:10.524Z,39.40
2023-01-23T21:57:38.609Z,40.20
2023-01-23T22:00:24.478Z,30.80
2023-01-23T22:02:52.718Z,35.60
2023-01-23T22:05:21.092Z,34.20
2023-01-23T22:07:51.346Z,41.60
2023-01-23T22:10:19.707Z,41.00
2023-01-23T22:12:47.889Z,41.40
2023-01-23T22:15:16.109Z,45.20
2023-01-23T22:17:45.875Z,46.00
2023-01-23T22:20:14.019Z,36.80
2023-01-23T22:22:42.167Z,44.40
2023-01-23T22:25:11.974Z,45.00
2023-01-23T22:27:40.531Z,35.20
2023-01-23T22:30:09.447Z,26.20
2023-01-23T22:32:37.588Z,33.00
2023-01-23T22:35:05.928Z,38.40
2023-01-23T22:37:34.019Z,37.00
2023-01-23T22:40:02.364Z,40.20
2023-01-23T22:42:32.752Z,41.00
2023-01-23T22:45:00.912Z,46.60
2023-01-23T22:47:29.067Z,36.00
2023-01-23T22:49:57.181Z,37.20
2023-01-23T22:52:25.365Z,38.20
2023-01-23T22:54:53.541Z,41.60
2023-01-23T22:57:21.900Z,38.20
2023-01-23T22:59:51.431Z,39.60
2023-01-23T23:02:19.942Z,31.00
2023-01-23T23:04:50.122Z,42.80
2023-01-23T23:07:18.328Z,37.00
2023-01-23T23:09:46.494Z,35.00
2023-01-23T23:12:14.720Z,33.80
2023-01-23T23:14:42.948Z,34.20
2023-01-23T23:17:12.537Z,37.60
2023-01-23T23:19:40.753Z,39.20
2023-01-23T23:22:09.148Z,25.60
2023-01-23T23:24:37.941Z,41.20
2023-01-23T23:27:06.132Z,38.80
2023-01-23T23:29:34.429Z,34.00
2023-01-23T23:32:02.766Z,37.80
2023-01-23T23:34:32.522Z,34.60
2023-01-23T23:37:00.679Z,13.20
2023-01-23T23:39:28.854Z,39.00
2023-01-23T23:41:57.272Z,37.40
2023-01-23T23:44:25.533Z,40.00
2023-01-23T23:46:53.840Z,43.80
2023-01-23T23:49:23.163Z,36.80
2023-01-23T23:51:52.790Z,36.20
2023-01-23T23:54:20.914Z,38.60
2023-01-23T23:56:49.514Z,37.60
2023-01-23T23:59:18.369Z,39.40
